createdAt,value
2018-09-22T00:01:31.524Z,14.30
2018-09-22T00:03:59.733Z,14.40
2018-09-22T00:06:27.918Z,14.40
2018-09-22T00:08:56.115Z,14.30
2018-09-22T00:11:24.308Z,14.20
2018-09-22T00:13:52.730Z,14.20
2018-09-22T00:16:20.923Z,14.20
2018-09-22T00:18:49.111Z,14.20
2018-09-22T00:21:17.295Z,14.20
2018-09-22T00:23:45.487Z,14.20
2018-09-22T00:26:13.670Z,14.10
2018-09-22T00:28:41.871Z,14.00
2018-09-22T00:31:10.395Z,14.00
2018-09-22T00:33:38.649Z,14.10
2018-09-22T00:36:06.828Z,14.10
2018-09-22T00:38:34.991Z,14.20
2018-09-22T00:41:03.155Z,14.30
2018-09-22T00:43:31.319Z,14.20
2018-09-22T00:45:59.487Z,14.10
2018-09-22T00:48:27.703Z,14.10
2018-09-22T00:50:55.890Z,14.20
2018-09-22T00:53:24.051Z,14.00
2018-09-22T00:55:52.210Z,13.90
2018-09-22T00:58:20.378Z,14.00
2018-09-22T01:00:48.711Z,14.10
2018-09-22T01:03:16.866Z,14.10
2018-09-22T01:05:45.079Z,14.20
2018-09-22T01:08:13.299Z,14.20
2018-09-22T01:10:41.496Z,14.20
2018-09-22T01:13:09.654Z,14.30
2018-09-22T01:15:37.905Z,14.30
2018-09-22T01:18:06.494Z,14.20
2018-09-22T01:20:34.668Z,14.20
2018-09-22T01:23:02.976Z,14.10
2018-09-22T01:25:31.378Z,14.20
2018-09-22T01:27:59.542Z,14.20
2018-09-22T01:30:27.711Z,14.30
2018-09-22T01:32:55.886Z,14.30
2018-09-22T01:35:24.031Z,14.40
2018-09-22T01:37:52.212Z,14.40
2018-09-22T01:40:20.379Z,14.30
2018-09-22T01:42:48.544Z,14.30
2018-09-22T01:45:16.706Z,14.30
2018-09-22T01:47:44.851Z,14.40
2018-09-22T01:50:13.015Z,14.40
2018-09-22T01:52:41.167Z,14.40
2018-09-22T01:55:09.327Z,14.40
2018-09-22T01:57:37.482Z,14.30
2018-09-22T02:00:05.705Z,14.20
2018-09-22T02:02:33.850Z,14.20
2018-09-22T02:05:02.004Z,14.30
2018-09-22T02:07:30.154Z,14.30
2018-09-22T02:09:58.350Z,14.30
2018-09-22T02:12:26.542Z,14.20
2018-09-22T02:14:54.716Z,14.30
2018-09-22T02:17:22.873Z,14.30
2018-09-22T02:19:51.392Z,14.30
2018-09-22T02:22:19.857Z,14.40
2018-09-22T02:24:48.002Z,14.20
2018-09-22T02:27:16.602Z,14.20
2018-09-22T02:29:44.767Z,14.10
2018-09-22T02:32:12.935Z,14.10
2018-09-22T02:34:41.087Z,14.10
2018-09-22T02:37:09.615Z,14.10
2018-09-22T02:39:37.795Z,14.20
2018-09-22T02:42:06.149Z,14.20
2018-09-22T02:44:34.377Z,14.10
2018-09-22T02:47:02.584Z,14.00
2018-09-22T02:49:30.982Z,14.10
2018-09-22T02:51:59.180Z,14.20
2018-09-22T02:54:27.350Z,14.30
2018-09-22T02:56:55.540Z,14.20
2018-09-22T02:59:23.711Z,14.10
2018-09-22T03:01:51.899Z,14.00
2018-09-22T03:04:20.200Z,14.20
2018-09-22T03:06:48.946Z,14.10
2018-09-22T03:09:17.103Z,14.10
2018-09-22T03:11:45.287Z,14.10
2018-09-22T03:14:13.487Z,14.10
2018-09-22T03:16:42.001Z,14.00
2018-09-22T03:19:10.200Z,14.00
2018-09-22T03:21:38.408Z,13.90
2018-09-22T03:24:06.632Z,13.90
2018-09-22T03:26:34.819Z,13.80
2018-09-22T03:29:03.007Z,13.80
2018-09-22T03:31:31.482Z,13.90
2018-09-22T03:33:59.647Z,13.90
2018-09-22T03:36:27.815Z,13.90
2018-09-22T03:38:55.976Z,13.90
2018-09-22T03:41:24.122Z,13.90
2018-09-22T03:43:52.279Z,13.80
2018-09-22T03:46:20.715Z,13.70
2018-09-22T03:48:48.896Z,13.80
2018-09-22T03:51:17.072Z,13.70
2018-09-22T03:53:45.539Z,13.70
2018-09-22T03:56:13.698Z,13.80
2018-09-22T03:58:41.847Z,13.80
2018-09-22T04:01:10.012Z,13.60
2018-09-22T04:03:38.159Z,13.70
2018-09-22T04:06:06.323Z,13.60
2018-09-22T04:08:34.734Z,13.70
2018-09-22T04:11:02.885Z,13.70
2018-09-22T04:13:31.039Z,13.70
2018-09-22T04:15:59.199Z,13.60
2018-09-22T04:18:27.363Z,13.70
2018-09-22T04:20:55.548Z,13.60
2018-09-22T04:23:23.720Z,13.60
2018-09-22T04:25:51.886Z,13.60
2018-09-22T04:28:20.046Z,13.50
2018-09-22T04:30:48.232Z,13.40
2018-09-22T04:33:16.675Z,13.30
2018-09-22T04:35:44.807Z,13.30
2018-09-22T04:38:13.123Z,13.30
2018-09-22T04:40:41.309Z,13.40
2018-09-22T04:43:09.495Z,13.50
2018-09-22T04:45:37.671Z,13.50
2018-09-22T04:48:05.859Z,13.50
2018-09-22T04:50:34.046Z,13.50
2018-09-22T04:53:02.263Z,13.40
2018-09-22T04:55:30.462Z,13.40
2018-09-22T04:57:58.667Z,13.50
2018-09-22T05:00:26.843Z,13.40
2018-09-22T05:02:55.031Z,13.50
2018-09-22T05:05:23.218Z,13.50
2018-09-22T05:07:51.578Z,13.50
2018-09-22T05:10:19.754Z,13.50
2018-09-22T05:12:48.182Z,13.40
2018-09-22T05:15:16.367Z,13.20
2018-09-22T05:17:44.550Z,13.30
2018-09-22T05:20:12.759Z,13.30
2018-09-22T05:22:40.954Z,13.10
2018-09-22T05:25:09.450Z,13.10
2018-09-22T05:27:37.701Z,13.00
2018-09-22T05:30:05.900Z,13.00
2018-09-22T05:32:34.235Z,13.00
2018-09-22T05:35:02.416Z,13.10
2018-09-22T05:37:30.831Z,13.10
2018-09-22T05:39:58.982Z,13.20
2018-09-22T05:42:27.451Z,13.30
2018-09-22T05:44:55.598Z,13.20
2018-09-22T05:47:23.755Z,13.20
2018-09-22T05:49:51.911Z,13.30
2018-09-22T05:52:20.071Z,13.20
2018-09-22T05:54:48.515Z,13.20
2018-09-22T05:57:16.695Z,13.30
2018-09-22T05:59:44.933Z,13.20
2018-09-22T06:02:13.103Z,13.30
2018-09-22T06:04:41.276Z,13.30
2018-09-22T06:07:09.424Z,13.30
2018-09-22T06:09:37.661Z,13.30
2018-09-22T06:12:05.735Z,13.30
2018-09-22T06:14:33.887Z,13.30
2018-09-22T06:17:02.340Z,13.40
2018-09-22T06:19:30.499Z,13.50
2018-09-22T06:21:58.651Z,13.60
2018-09-22T06:24:26.802Z,13.50
2018-09-22T06:26:54.958Z,13.60
2018-09-22T06:29:23.127Z,13.60
2018-09-22T06:31:51.360Z,13.70
2018-09-22T06:34:19.558Z,13.80
2018-09-22T06:36:47.729Z,13.70
2018-09-22T06:39:15.903Z,13.70
2018-09-22T06:41:44.063Z,13.80
2018-09-22T06:44:12.227Z,14.00
2018-09-22T06:46:40.382Z,14.00
2018-09-22T06:49:08.550Z,14.20
2018-09-22T06:51:36.699Z,14.20
2018-09-22T06:54:04.858Z,14.40
2018-09-22T06:56:33.019Z,14.50
2018-09-22T06:59:01.251Z,14.60
2018-09-22T07:01:29.408Z,14.70
2018-09-22T07:03:57.803Z,14.50
2018-09-22T07:06:26.015Z,14.50
2018-09-22T07:08:54.154Z,14.50
2018-09-22T07:11:22.406Z,14.60
2018-09-22T07:13:50.698Z,14.80
2018-09-22T07:16:18.844Z,14.90
2018-09-22T07:18:47.007Z,14.90
2018-09-22T07:21:15.183Z,14.50
2018-09-22T07:23:43.606Z,14.70
2018-09-22T07:26:11.763Z,14.70
2018-09-22T07:28:39.919Z,14.70
2018-09-22T07:31:08.338Z,14.90
2018-09-22T07:33:36.500Z,14.90
2018-09-22T07:36:04.690Z,14.90
2018-09-22T07:38:32.883Z,15.20
2018-09-22T07:41:01.116Z,15.30
2018-09-22T07:43:29.348Z,15.60
2018-09-22T07:45:57.595Z,15.60
2018-09-22T07:48:25.791Z,15.60
2018-09-22T07:50:54.226Z,15.70
2018-09-22T07:53:23.015Z,15.50
2018-09-22T07:55:51.203Z,15.60
2018-09-22T07:58:19.512Z,15.60
2018-09-22T08:00:47.708Z,15.60
2018-09-22T08:03:15.883Z,15.50
2018-09-22T08:05:44.080Z,15.70
2018-09-22T08:08:12.434Z,15.80
2018-09-22T08:10:40.626Z,15.90
2018-09-22T08:13:08.835Z,15.90
2018-09-22T08:15:37.066Z,16.00
2018-09-22T08:18:05.304Z,15.80
2018-09-22T08:20:33.531Z,15.90
2018-09-22T08:23:01.737Z,16.00
2018-09-22T08:25:29.938Z,16.30
2018-09-22T08:27:58.135Z,16.30
2018-09-22T08:30:26.323Z,16.20
2018-09-22T08:32:54.523Z,16.10
2018-09-22T08:35:23.155Z,16.10
2018-09-22T08:37:51.343Z,16.20
2018-09-22T08:40:19.530Z,16.10
2018-09-22T08:42:47.718Z,16.10
2018-09-22T08:45:16.011Z,16.20
2018-09-22T08:47:44.395Z,16.40
2018-09-22T08:50:12.591Z,16.50
2018-09-22T08:52:41.089Z,16.70
2018-09-22T08:55:09.350Z,16.60
2018-09-22T08:57:37.640Z,16.50
2018-09-22T09:00:06.287Z,16.20
2018-09-22T09:02:34.472Z,16.30
2018-09-22T09:05:02.732Z,16.30
2018-09-22T09:07:30.844Z,16.30
2018-09-22T09:09:59.055Z,16.40
2018-09-22T09:12:27.231Z,16.20
2018-09-22T09:14:55.466Z,16.40
2018-09-22T09:17:23.647Z,16.50
2018-09-22T09:19:51.898Z,16.70
2018-09-22T09:22:20.171Z,16.80
2018-09-22T09:24:48.566Z,16.90
2018-09-22T09:27:16.763Z,17.00
2018-09-22T09:29:44.971Z,17.00
2018-09-22T09:32:16.646Z,16.30
2018-09-22T09:34:45.431Z,16.50
2018-09-22T09:37:13.623Z,16.80
2018-09-22T09:39:41.845Z,16.80
2018-09-22T09:42:10.026Z,16.70
2018-09-22T09:44:38.175Z,16.90
2018-09-22T09:47:06.367Z,17.00
2018-09-22T09:49:34.535Z,17.00
2018-09-22T09:52:02.719Z,17.10
2018-09-22T09:54:30.927Z,17.30
2018-09-22T09:56:59.075Z,17.50
2018-09-22T09:59:27.227Z,17.50
2018-09-22T10:01:55.992Z,17.50
2018-09-22T10:04:24.201Z,17.50
2018-09-22T10:06:52.614Z,17.60
2018-09-22T10:09:20.982Z,17.40
2018-09-22T10:11:49.301Z,17.30
2018-09-22T10:14:17.461Z,17.00
2018-09-22T10:16:45.645Z,17.30
2018-09-22T10:19:13.794Z,17.30
2018-09-22T10:21:41.950Z,17.30
2018-09-22T10:24:10.117Z,17.50
2018-09-22T10:26:38.275Z,17.50
2018-09-22T10:29:06.446Z,17.60
2018-09-22T10:31:34.795Z,17.80
2018-09-22T10:34:02.974Z,17.80
2018-09-22T10:36:31.134Z,17.80
2018-09-22T10:38:59.287Z,17.70
2018-09-22T10:41:27.455Z,17.90
2018-09-22T10:43:55.703Z,18.10
2018-09-22T10:46:23.904Z,18.10
2018-09-22T10:48:52.098Z,18.10
2018-09-22T10:51:20.251Z,18.10
2018-09-22T10:53:48.406Z,18.00
2018-09-22T10:56:16.598Z,17.70
2018-09-22T10:58:45.164Z,17.60
2018-09-22T11:01:13.319Z,17.90
2018-09-22T11:03:41.466Z,17.90
2018-09-22T11:06:09.943Z,17.80
2018-09-22T11:08:38.491Z,17.70
2018-09-22T11:11:06.691Z,17.80
2018-09-22T11:13:34.843Z,17.80
2018-09-22T11:16:03.011Z,17.70
2018-09-22T11:18:31.207Z,17.90
2018-09-22T11:20:59.397Z,18.00
2018-09-22T11:23:27.580Z,18.20
2018-09-22T11:25:55.751Z,18.50
2018-09-22T11:28:23.991Z,18.60
2018-09-22T11:30:52.136Z,18.80
2018-09-22T11:33:20.298Z,19.00
2018-09-22T11:35:48.453Z,19.20
2018-09-22T11:38:16.728Z,19.10
2018-09-22T11:40:44.870Z,18.90
2018-09-22T11:43:13.063Z,19.20
2018-09-22T11:45:41.503Z,19.60
2018-09-22T11:48:09.683Z,19.70
2018-09-22T11:50:37.910Z,19.70
2018-09-22T11:53:06.606Z,19.70
2018-09-22T11:55:34.853Z,19.80
2018-09-22T11:58:03.196Z,19.30
2018-09-22T12:00:31.396Z,19.40
2018-09-22T12:02:59.587Z,19.60
2018-09-22T12:05:27.772Z,19.70
2018-09-22T12:07:55.963Z,20.10
2018-09-22T12:10:24.151Z,20.20
2018-09-22T12:12:52.339Z,20.30
2018-09-22T12:15:20.527Z,20.50
2018-09-22T12:17:48.795Z,20.70
2018-09-22T12:20:16.990Z,20.80
2018-09-22T12:22:45.191Z,20.90
2018-09-22T12:25:13.636Z,21.20
2018-09-22T12:27:41.825Z,21.30
2018-09-22T12:30:10.023Z,21.40
2018-09-22T12:32:38.264Z,21.60
2018-09-22T12:35:06.508Z,21.90
2018-09-22T12:37:34.680Z,21.90
2018-09-22T12:40:02.847Z,21.90
2018-09-22T12:42:31.015Z,22.20
2018-09-22T12:44:59.171Z,22.30
2018-09-22T12:47:27.559Z,22.00
2018-09-22T12:49:55.907Z,22.10
2018-09-22T12:52:24.351Z,22.30
2018-09-22T12:54:52.498Z,22.20
2018-09-22T12:57:20.651Z,22.40
2018-09-22T12:59:48.806Z,22.30
2018-09-22T13:02:16.973Z,22.50
2018-09-22T13:04:45.137Z,22.40
2018-09-22T13:07:13.353Z,22.50
2018-09-22T13:09:41.527Z,23.10
2018-09-22T13:12:09.678Z,23.30
2018-09-22T13:14:37.841Z,23.30
2018-09-22T13:17:06.003Z,23.30
2018-09-22T13:19:34.394Z,23.60
2018-09-22T13:22:02.552Z,23.50
2018-09-22T13:24:30.710Z,23.40
2018-09-22T13:26:59.103Z,23.30
2018-09-22T13:29:27.267Z,23.20
2018-09-22T13:31:55.427Z,23.60
2018-09-22T13:34:23.947Z,23.70
2018-09-22T13:36:52.223Z,24.00
2018-09-22T13:39:20.423Z,23.80
2018-09-22T13:41:48.652Z,23.50
2018-09-22T13:44:16.860Z,23.60
2018-09-22T13:46:45.056Z,23.90
2018-09-22T13:49:13.247Z,23.90
2018-09-22T13:51:41.766Z,24.10
2018-09-22T13:54:09.972Z,23.80
2018-09-22T13:56:38.464Z,23.60
2018-09-22T13:59:06.663Z,23.50
2018-09-22T14:01:34.842Z,23.50
2018-09-22T14:04:03.054Z,22.90
2018-09-22T14:06:31.269Z,22.60
2018-09-22T14:08:59.458Z,22.90
2018-09-22T14:11:28.478Z,23.20
2018-09-22T14:13:56.662Z,23.30
2018-09-22T14:16:25.175Z,23.20
2018-09-22T14:18:53.391Z,23.00
2018-09-22T14:21:21.646Z,23.10
2018-09-22T14:23:49.782Z,23.10
2018-09-22T14:26:17.971Z,23.00
2018-09-22T14:28:46.447Z,22.80
2018-09-22T14:31:14.851Z,22.70
2018-09-22T14:33:43.306Z,23.10
2018-09-22T14:36:11.494Z,23.30
2018-09-22T14:38:39.687Z,23.20
2018-09-22T14:41:07.883Z,23.30
2018-09-22T14:43:36.079Z,22.70
2018-09-22T14:46:04.578Z,22.50
2018-09-22T14:48:32.766Z,22.40
2018-09-22T14:51:01.181Z,22.40
2018-09-22T14:53:29.424Z,21.90
2018-09-22T14:55:57.641Z,21.80
2018-09-22T14:58:25.835Z,21.30
2018-09-22T15:00:54.023Z,21.40
2018-09-22T15:03:22.207Z,21.30
2018-09-22T15:05:50.395Z,21.10
2018-09-22T15:08:18.782Z,21.00
2018-09-22T15:10:47.266Z,21.10
2018-09-22T15:13:15.446Z,21.00
2018-09-22T15:15:43.634Z,20.90
2018-09-22T15:18:11.855Z,20.90
2018-09-22T15:20:40.043Z,21.00
2018-09-22T15:23:08.875Z,20.90
2018-09-22T15:25:37.063Z,20.70
2018-09-22T15:28:05.445Z,20.50
2018-09-22T15:30:33.946Z,20.70
2018-09-22T15:33:02.287Z,20.80
2018-09-22T15:35:30.487Z,20.80
2018-09-22T15:37:58.670Z,20.60
2018-09-22T15:40:26.859Z,20.50
2018-09-22T15:42:55.038Z,20.40
2018-09-22T15:45:23.273Z,20.30
2018-09-22T15:47:51.414Z,20.30
2018-09-22T15:50:19.599Z,20.10
2018-09-22T15:52:47.783Z,20.10
2018-09-22T15:55:15.970Z,20.00
2018-09-22T15:57:44.147Z,20.00
2018-09-22T16:00:12.334Z,20.00
2018-09-22T16:02:40.570Z,19.90
2018-09-22T16:05:08.760Z,19.90
2018-09-22T16:07:36.947Z,20.00
2018-09-22T16:10:05.259Z,19.90
2018-09-22T16:12:33.443Z,19.80
2018-09-22T16:15:01.632Z,19.70
2018-09-22T16:17:29.811Z,19.70
2018-09-22T16:19:58.000Z,19.50
2018-09-22T16:22:26.196Z,19.20
2018-09-22T16:24:54.383Z,19.10
2018-09-22T16:27:22.620Z,19.00
2018-09-22T16:29:50.742Z,18.90
2018-09-22T16:32:18.935Z,18.90
2018-09-22T16:34:47.114Z,18.90
2018-09-22T16:37:15.322Z,18.80
2018-09-22T16:39:43.508Z,18.80
2018-09-22T16:42:11.670Z,18.70
2018-09-22T16:44:40.151Z,18.70
2018-09-22T16:47:08.315Z,18.60
2018-09-22T16:49:36.764Z,18.60
2018-09-22T16:52:04.858Z,18.50
2018-09-22T16:54:33.019Z,18.60
2018-09-22T16:57:01.201Z,18.50
2018-09-22T16:59:29.363Z,18.40
2018-09-22T17:01:57.523Z,18.30
2018-09-22T17:04:25.683Z,18.20
2018-09-22T17:06:53.838Z,18.10
2018-09-22T17:09:22.000Z,18.10
2018-09-22T17:11:50.199Z,18.00
2018-09-22T17:14:18.364Z,18.10
2018-09-22T17:16:46.559Z,18.10
2018-09-22T17:19:15.177Z,18.10
2018-09-22T17:21:43.374Z,18.10
2018-09-22T17:24:11.914Z,18.00
2018-09-22T17:26:40.107Z,17.90
2018-09-22T17:29:08.321Z,17.90
2018-09-22T17:31:36.764Z,17.90
2018-09-22T17:34:04.943Z,17.90
2018-09-22T17:36:33.139Z,17.90
2018-09-22T17:39:01.335Z,17.90
2018-09-22T17:41:29.523Z,17.90
2018-09-22T17:43:57.754Z,17.80
2018-09-22T17:46:25.980Z,17.70
2018-09-22T17:48:54.177Z,17.70
2018-09-22T17:51:22.358Z,17.70
2018-09-22T17:53:50.551Z,17.70
2018-09-22T17:56:18.742Z,17.70
2018-09-22T17:58:46.930Z,17.60
2018-09-22T18:01:15.110Z,17.50
2018-09-22T18:03:43.300Z,17.40
2018-09-22T18:06:11.484Z,17.50
2018-09-22T18:08:39.699Z,17.50
2018-09-22T18:11:08.215Z,17.50
2018-09-22T18:13:36.399Z,17.50
2018-09-22T18:16:04.591Z,17.60
2018-09-22T18:18:32.794Z,17.60
2018-09-22T18:21:01.034Z,17.60
2018-09-22T18:23:29.248Z,17.60
2018-09-22T18:25:57.456Z,17.60
2018-09-22T18:28:25.641Z,17.50
2018-09-22T18:30:53.831Z,17.50
2018-09-22T18:33:22.030Z,17.50
2018-09-22T18:35:50.234Z,17.40
2018-09-22T18:38:18.395Z,17.40
2018-09-22T18:40:46.787Z,17.30
2018-09-22T18:43:14.943Z,17.20
2018-09-22T18:45:43.098Z,17.10
2018-09-22T18:48:11.279Z,17.10
2018-09-22T18:50:39.451Z,17.10
2018-09-22T18:53:07.610Z,17.10
2018-09-22T18:55:36.144Z,17.00
2018-09-22T18:58:04.341Z,16.90
2018-09-22T19:00:32.487Z,16.90
2018-09-22T19:03:00.651Z,16.80
2018-09-22T19:05:29.087Z,16.80
2018-09-22T19:07:57.251Z,16.80
2018-09-22T19:10:25.426Z,16.80
2018-09-22T19:12:53.854Z,16.70
2018-09-22T19:15:30.527Z,16.70
2018-09-22T19:18:04.874Z,16.70
2018-09-22T19:20:52.172Z,16.70
2018-09-22T19:23:24.856Z,16.70
2018-09-22T19:25:59.878Z,16.70
2018-09-22T19:28:32.767Z,16.70
2018-09-22T19:31:05.099Z,16.70
2018-09-22T19:33:36.898Z,16.70
2018-09-22T19:36:16.388Z,16.70
2018-09-22T19:38:49.189Z,16.70
2018-09-22T19:41:21.197Z,16.70
2018-09-22T19:43:59.096Z,16.70
2018-09-22T19:46:31.960Z,16.70
2018-09-22T19:49:10.305Z,16.60
2018-09-22T19:51:46.258Z,16.60
2018-09-22T19:54:14.446Z,16.60
2018-09-22T19:56:43.219Z,16.50
2018-09-22T19:59:11.414Z,16.50
2018-09-22T20:01:39.596Z,16.50
2018-09-22T20:04:07.791Z,16.40
2018-09-22T20:06:35.974Z,16.40
2018-09-22T20:09:05.459Z,16.40
2018-09-22T20:11:33.740Z,16.40
2018-09-22T20:14:01.896Z,16.40
2018-09-22T20:16:30.086Z,16.40
2018-09-22T20:18:58.278Z,16.40
2018-09-22T20:21:26.459Z,16.40
2018-09-22T20:23:54.952Z,16.40
2018-09-22T20:26:23.079Z,16.40
2018-09-22T20:28:51.262Z,16.30
2018-09-22T20:31:19.459Z,16.30
2018-09-22T20:33:47.651Z,16.30
2018-09-22T20:36:15.834Z,16.30
2018-09-22T20:38:44.014Z,16.20
2018-09-22T20:41:12.169Z,16.20
2018-09-22T20:43:40.553Z,16.10
2018-09-22T20:46:08.926Z,16.10
2018-09-22T20:48:37.108Z,16.10
2018-09-22T20:51:05.411Z,16.10
2018-09-22T20:53:33.575Z,16.10
2018-09-22T20:56:01.719Z,16.10
2018-09-22T20:58:30.100Z,16.00
2018-09-22T21:00:58.487Z,15.90
2018-09-22T21:03:26.643Z,15.90
2018-09-22T21:05:54.794Z,15.90
2018-09-22T21:08:22.946Z,15.90
2018-09-22T21:10:51.095Z,15.80
2018-09-22T21:13:19.258Z,15.80
2018-09-22T21:15:47.415Z,15.80
2018-09-22T21:18:15.566Z,15.80
2018-09-22T21:20:43.760Z,15.80
2018-09-22T21:23:11.952Z,15.80
2018-09-22T21:25:40.122Z,15.70
2018-09-22T21:28:08.278Z,15.70
2018-09-22T21:30:36.482Z,15.80
2018-09-22T21:33:04.579Z,15.80
2018-09-22T21:35:32.747Z,15.80
2018-09-22T21:38:00.935Z,15.80
2018-09-22T21:40:29.135Z,15.80
2018-09-22T21:42:57.315Z,15.80
2018-09-22T21:45:25.859Z,15.70
2018-09-22T21:47:54.051Z,15.70
2018-09-22T21:50:22.235Z,15.70
2018-09-22T21:52:50.428Z,15.70
2018-09-22T21:55:18.652Z,15.70
2018-09-22T21:57:46.876Z,15.70
2018-09-22T22:00:15.083Z,15.70
2018-09-22T22:02:43.266Z,15.70
2018-09-22T22:05:11.458Z,15.60
2018-09-22T22:07:39.639Z,15.50
2018-09-22T22:10:08.047Z,15.40
2018-09-22T22:12:36.230Z,15.40
2018-09-22T22:15:04.627Z,15.40
2018-09-22T22:17:32.815Z,15.40
2018-09-22T22:20:01.023Z,15.30
2018-09-22T22:22:29.206Z,15.30
2018-09-22T22:24:57.396Z,15.30
2018-09-22T22:27:25.581Z,15.30
2018-09-22T22:29:53.796Z,15.30
2018-09-22T22:32:22.007Z,15.30
2018-09-22T22:34:50.198Z,15.20
2018-09-22T22:37:18.633Z,15.20
2018-09-22T22:39:46.819Z,15.20
2018-09-22T22:42:15.016Z,15.10
2018-09-22T22:44:43.195Z,15.10
2018-09-22T22:47:11.375Z,15.10
2018-09-22T22:49:39.563Z,15.10
2018-09-22T22:52:07.852Z,15.10
2018-09-22T22:54:36.299Z,15.10
2018-09-22T22:57:04.727Z,15.10
2018-09-22T22:59:32.946Z,15.20
2018-09-22T23:02:01.137Z,15.10
2018-09-22T23:04:29.366Z,15.00
2018-09-22T23:06:57.747Z,14.90
2018-09-22T23:09:25.960Z,14.90
2018-09-22T23:11:54.189Z,15.00
2018-09-22T23:14:22.374Z,15.00
2018-09-22T23:16:50.562Z,14.90
2018-09-22T23:19:18.746Z,14.90
2018-09-22T23:21:46.945Z,14.90
2018-09-22T23:24:15.122Z,14.90
2018-09-22T23:26:43.316Z,14.90
2018-09-22T23:29:11.490Z,14.80
2018-09-22T23:31:39.678Z,14.80
2018-09-22T23:34:07.862Z,14.80
2018-09-22T23:36:36.065Z,14.80
2018-09-22T23:39:05.880Z,14.80
2018-09-22T23:41:34.043Z,14.80
2018-09-22T23:44:02.198Z,14.70
2018-09-22T23:46:30.354Z,14.80
2018-09-22T23:48:58.502Z,14.80
2018-09-22T23:51:26.662Z,14.40
2018-09-22T23:53:54.819Z,14.40
2018-09-22T23:56:22.981Z,14.40
2018-09-22T23:58:51.138Z,14.50
